Search for airport 
image banner adimage banner ad
image banner ad

HESG - Suhag Intl

Located in Suhag, Egypt

ICAO - , IATA - HMB

Data provided by Airmate  

General information

Coordinates: N26°20'34" E31°44'34"
Elevation is 304 feet MSL.
 
Rated:
View ratings: [VIEW]


View others Airports in Sohag Governorate

Operational data

Open for public use
Current time UTC:
Current local time:
Weather
METAR: HESG 122300Z 36003KT CAVOK 28/10 Q1005 NOSIG
TAF: TAF HESG 121100Z 1212/1318 33012KT CAVOK
View NOTAMs / SUP AIP / TFR affecting this airport [VIEW]
Communications frequencies: [VIEW]

Runways:

RWY identifierQFULength (ft)Width (ft)SurfaceLDA (ft)
15149°9843148
33329°9843148

Airport contact information

Address: Suhag Egypt

Satellite view of HESG